createdAt,value
2017-07-03T00:00:54.485Z,101716.33
2017-07-03T00:03:26.828Z,101715.31
2017-07-03T00:05:59.201Z,101727.11
2017-07-03T00:08:31.498Z,101724.86
2017-07-03T00:11:03.881Z,101724.49
2017-07-03T00:13:36.158Z,101722.76
2017-07-03T00:16:08.737Z,101719.47
2017-07-03T00:18:41.047Z,101716.36
2017-07-03T00:21:13.337Z,101719.97
2017-07-03T00:23:52.790Z,101722.83
2017-07-03T00:26:25.359Z,101725.15
2017-07-03T00:28:57.818Z,101725.48
2017-07-03T00:31:30.201Z,101722.52
2017-07-03T00:34:02.569Z,101725.14
2017-07-03T00:36:35.057Z,101723.29
2017-07-03T00:39:07.423Z,101721.47
2017-07-03T00:41:39.820Z,101728.55
2017-07-03T00:44:12.169Z,101726.64
2017-07-03T00:46:44.553Z,101724.77
2017-07-03T00:49:17.031Z,101719.42
2017-07-03T00:51:49.449Z,101726.00
2017-07-03T00:54:21.766Z,101727.61
2017-07-03T00:56:54.253Z,101726.82
2017-07-03T00:59:27.556Z,101734.42
2017-07-03T01:02:00.323Z,101738.33
2017-07-03T01:04:32.697Z,101735.52
2017-07-03T01:07:04.677Z,101739.56
2017-07-03T01:09:37.021Z,101738.85
2017-07-03T01:12:09.407Z,101737.88
2017-07-03T01:14:41.770Z,101736.45
2017-07-03T01:17:14.268Z,101740.30
2017-07-03T01:19:46.757Z,101738.14
2017-07-03T01:22:19.155Z,101728.63
2017-07-03T01:24:52.397Z,101737.75
2017-07-03T01:27:24.823Z,101739.42
2017-07-03T01:29:57.250Z,101741.80
2017-07-03T01:32:29.540Z,101735.22
2017-07-03T01:35:02.450Z,101736.95
2017-07-03T01:37:34.236Z,101734.95
2017-07-03T01:40:06.685Z,101734.64
2017-07-03T01:42:38.989Z,101734.45
2017-07-03T01:45:11.285Z,101741.38
2017-07-03T01:47:43.689Z,101741.32
2017-07-03T01:50:16.443Z,101737.69
2017-07-03T01:52:48.505Z,101731.11
2017-07-03T01:55:20.830Z,101730.73
2017-07-03T01:57:53.205Z,101730.98
2017-07-03T02:00:25.601Z,101733.60
2017-07-03T02:02:57.972Z,101728.91
2017-07-03T02:05:30.364Z,101735.64
2017-07-03T02:08:03.678Z,101732.38
2017-07-03T02:10:36.452Z,101729.16
2017-07-03T02:13:08.944Z,101732.95
2017-07-03T02:15:40.859Z,101731.45
2017-07-03T02:18:13.196Z,101732.40
2017-07-03T02:20:45.361Z,101727.58
2017-07-03T02:23:18.761Z,101734.64
2017-07-03T02:25:51.183Z,101734.09
2017-07-03T02:28:23.526Z,101736.58
2017-07-03T02:30:56.083Z,101739.59
2017-07-03T02:33:28.353Z,101740.45
2017-07-03T02:36:00.681Z,101739.30
2017-07-03T02:38:33.484Z,101733.74
2017-07-03T02:41:05.713Z,101739.73
2017-07-03T02:43:38.041Z,101737.40
2017-07-03T02:46:10.526Z,101737.31
2017-07-03T02:48:43.822Z,101734.08
2017-07-03T02:51:16.421Z,101729.23
2017-07-03T02:53:49.421Z,101740.33
2017-07-03T02:56:22.028Z,101736.72
2017-07-03T02:58:54.495Z,101744.27
2017-07-03T03:01:26.895Z,101729.35
2017-07-03T03:03:59.250Z,101726.77
2017-07-03T03:06:31.968Z,101733.22
2017-07-03T03:09:05.040Z,101734.70
2017-07-03T03:11:37.492Z,101733.91
2017-07-03T03:14:09.791Z,101735.83
2017-07-03T03:16:42.272Z,101738.87
2017-07-03T03:19:14.657Z,101731.69
2017-07-03T03:21:47.128Z,101734.27
2017-07-03T03:24:19.485Z,101743.58
2017-07-03T03:26:51.852Z,101734.03
2017-07-03T03:29:24.349Z,101747.42
2017-07-03T03:31:56.781Z,101740.83
2017-07-03T03:34:29.113Z,101742.41
2017-07-03T03:37:02.013Z,101739.24
2017-07-03T03:39:33.957Z,101738.02
2017-07-03T03:42:06.345Z,101735.19
2017-07-03T03:44:38.781Z,101737.03
2017-07-03T03:47:11.359Z,101742.45
2017-07-03T03:49:43.834Z,101738.56
2017-07-03T03:52:15.888Z,101736.45
2017-07-03T03:54:48.365Z,101736.86
2017-07-03T03:57:20.647Z,101734.64
2017-07-03T04:00:00.174Z,101731.02
2017-07-03T04:02:32.596Z,101733.41
2017-07-03T04:05:05.449Z,101738.86
2017-07-03T04:07:37.540Z,101737.64
2017-07-03T04:10:10.907Z,101731.13
2017-07-03T04:12:43.411Z,101734.64
2017-07-03T04:15:15.869Z,101732.69
2017-07-03T04:17:48.232Z,101730.52
2017-07-03T04:20:20.620Z,101732.00
2017-07-03T04:22:52.979Z,101727.59
2017-07-03T04:25:25.413Z,101727.36
2017-07-03T04:27:57.737Z,101727.16
2017-07-03T04:30:30.111Z,101720.16
2017-07-03T04:33:02.572Z,101727.81
2017-07-03T04:35:35.056Z,101723.97
2017-07-03T04:38:07.734Z,101723.02
2017-07-03T04:40:40.037Z,101727.63
2017-07-03T04:43:12.444Z,101723.99
2017-07-03T04:45:44.892Z,101722.16
2017-07-03T04:48:17.304Z,101720.33
2017-07-03T04:50:49.804Z,101724.30
2017-07-03T04:53:22.489Z,101725.05
2017-07-03T04:55:55.047Z,101727.74
2017-07-03T04:58:27.100Z,101732.75
2017-07-03T05:01:00.322Z,101731.47
2017-07-03T05:03:32.989Z,101731.22
2017-07-03T05:06:05.366Z,101731.50
2017-07-03T05:08:37.844Z,101726.80
2017-07-03T05:11:10.272Z,101736.13
2017-07-03T05:13:42.612Z,101738.45
2017-07-03T05:16:15.189Z,101737.08
2017-07-03T05:18:47.648Z,101745.36
2017-07-03T05:21:20.037Z,101739.13
2017-07-03T05:23:52.500Z,101740.10
2017-07-03T05:26:24.908Z,101745.75
2017-07-03T05:28:57.481Z,101741.27
2017-07-03T05:31:29.739Z,101735.75
2017-07-03T05:34:02.159Z,101735.86
2017-07-03T05:36:35.339Z,101743.14
2017-07-03T05:39:07.949Z,101740.94
2017-07-03T05:41:40.281Z,101733.64
2017-07-03T05:44:18.775Z,101736.64
2017-07-03T05:46:51.267Z,101746.07
2017-07-03T05:49:23.665Z,101739.39
2017-07-03T05:51:56.046Z,101744.52
2017-07-03T05:54:28.497Z,101737.39
2017-07-03T05:57:00.887Z,101735.42
2017-07-03T05:59:33.679Z,101727.52
2017-07-03T06:02:05.923Z,101722.86
2017-07-03T06:04:38.677Z,101727.89
2017-07-03T06:07:10.944Z,101729.89
2017-07-03T06:09:43.305Z,101731.31
2017-07-03T06:12:15.709Z,101735.47
2017-07-03T06:14:48.120Z,101734.84
2017-07-03T06:17:20.566Z,101730.95
2017-07-03T06:19:53.022Z,101737.03
2017-07-03T06:22:26.501Z,101739.78
2017-07-03T06:24:58.864Z,101738.98
2017-07-03T06:27:31.309Z,101737.53
2017-07-03T06:30:04.045Z,101731.86
2017-07-03T06:32:36.342Z,101741.67
2017-07-03T06:35:09.205Z,101737.57
2017-07-03T06:37:41.205Z,101732.33
2017-07-03T06:40:13.540Z,101733.94
2017-07-03T06:42:45.926Z,101739.13
2017-07-03T06:45:18.291Z,101734.31
2017-07-03T06:47:50.787Z,101747.52
2017-07-03T06:50:23.124Z,101742.80
2017-07-03T06:52:55.641Z,101746.68
2017-07-03T06:55:27.989Z,101742.17
2017-07-03T06:58:00.375Z,101739.78
2017-07-03T07:00:32.845Z,101734.24
2017-07-03T07:03:06.230Z,101738.68
2017-07-03T07:05:38.620Z,101727.05
2017-07-03T07:08:10.915Z,101724.92
2017-07-03T07:10:43.558Z,101727.83
2017-07-03T07:13:15.740Z,101723.43
2017-07-03T07:15:48.205Z,101725.48
2017-07-03T07:18:21.488Z,101730.66
2017-07-03T07:20:54.068Z,101724.64
2017-07-03T07:23:26.584Z,101728.06
2017-07-03T07:25:58.928Z,101729.94
2017-07-03T07:28:31.345Z,101714.73
2017-07-03T07:31:03.744Z,101720.69
2017-07-03T07:33:35.986Z,101720.88
2017-07-03T07:36:08.325Z,101714.06
2017-07-03T07:38:40.680Z,101712.16
2017-07-03T07:41:12.989Z,101716.95
2017-07-03T07:43:45.465Z,101714.97
2017-07-03T07:46:17.908Z,101706.04
2017-07-03T07:48:50.390Z,101705.72
2017-07-03T07:51:22.738Z,101695.03
2017-07-03T07:54:02.221Z,101705.36
2017-07-03T07:56:34.556Z,101693.36
2017-07-03T07:59:07.176Z,101703.22
2017-07-03T08:01:39.262Z,101700.91
2017-07-03T08:04:11.606Z,101693.59
2017-07-03T08:06:43.940Z,101692.65
2017-07-03T08:09:17.429Z,101697.98
2017-07-03T08:11:49.636Z,101699.14
2017-07-03T08:14:22.033Z,101700.84
2017-07-03T08:16:54.399Z,101702.70
2017-07-03T08:19:26.804Z,101701.92
2017-07-03T08:21:59.128Z,101707.08
2017-07-03T08:24:32.436Z,101705.32
2017-07-03T08:27:04.812Z,101698.34
2017-07-03T08:29:37.229Z,101693.44
2017-07-03T08:32:09.750Z,101691.26
2017-07-03T08:34:42.240Z,101689.07
2017-07-03T08:37:14.563Z,101689.12
2017-07-03T08:39:46.992Z,101678.11
2017-07-03T08:42:19.341Z,101674.92
2017-07-03T08:44:52.781Z,101684.20
2017-07-03T08:47:25.215Z,101678.09
2017-07-03T08:49:57.641Z,101677.70
2017-07-03T08:52:30.072Z,101666.73
2017-07-03T08:55:02.367Z,101661.56
2017-07-03T08:57:34.802Z,101662.92
2017-07-03T09:00:07.222Z,101670.28
2017-07-03T09:02:39.533Z,101660.14
2017-07-03T09:05:11.960Z,101660.33
2017-07-03T09:07:44.400Z,101650.69
2017-07-03T09:10:16.765Z,101647.36
2017-07-03T09:12:49.465Z,101653.77
2017-07-03T09:15:21.645Z,101647.85
2017-07-03T09:17:54.180Z,101637.43
2017-07-03T09:20:27.907Z,101640.76
2017-07-03T09:22:59.912Z,101635.73
2017-07-03T09:25:32.327Z,101628.19
2017-07-03T09:28:04.706Z,101631.00
2017-07-03T09:30:37.019Z,101627.98
2017-07-03T09:33:09.501Z,101631.50
2017-07-03T09:35:41.919Z,101629.64
2017-07-03T09:38:14.306Z,101628.60
2017-07-03T09:40:46.704Z,101631.39
2017-07-03T09:43:19.176Z,101625.38
2017-07-03T09:45:51.889Z,101621.77
2017-07-03T09:48:23.981Z,101624.71
2017-07-03T09:50:56.345Z,101614.65
2017-07-03T09:53:29.777Z,101617.11
2017-07-03T09:56:03.112Z,101618.20
2017-07-03T09:58:35.872Z,101621.62
2017-07-03T10:01:08.051Z,101622.77
2017-07-03T10:03:40.500Z,101616.30
2017-07-03T10:06:13.087Z,101616.44
2017-07-03T10:08:45.465Z,101619.97
2017-07-03T10:11:17.977Z,101610.43
2017-07-03T10:13:50.320Z,101610.63
2017-07-03T10:16:23.388Z,101607.77
2017-07-03T10:18:56.067Z,101607.83
2017-07-03T10:21:28.493Z,101613.66
2017-07-03T10:24:00.941Z,101609.92
2017-07-03T10:26:33.736Z,101614.34
2017-07-03T10:29:05.865Z,101603.72
2017-07-03T10:31:38.177Z,101595.77
2017-07-03T10:34:10.522Z,101593.05
2017-07-03T10:36:42.859Z,101594.00
2017-07-03T10:39:15.252Z,101592.02
2017-07-03T10:41:47.628Z,101586.98
2017-07-03T10:44:20.028Z,101586.06
2017-07-03T10:46:52.531Z,101581.75
2017-07-03T10:49:24.874Z,101579.73
2017-07-03T10:51:57.280Z,101568.78
2017-07-03T10:54:29.936Z,101568.36
2017-07-03T10:57:01.935Z,101561.64
2017-07-03T10:59:34.950Z,101562.24
2017-07-03T11:02:06.898Z,101560.34
2017-07-03T11:04:39.236Z,101552.36
2017-07-03T11:07:11.801Z,101549.76
2017-07-03T11:09:44.209Z,101554.67
2017-07-03T11:12:16.598Z,101544.14
2017-07-03T11:14:48.844Z,101545.08
2017-07-03T11:17:21.253Z,101544.25
2017-07-03T11:19:53.635Z,101538.81
2017-07-03T11:22:26.073Z,101538.70
2017-07-03T11:24:58.437Z,101540.09
2017-07-03T11:27:30.705Z,101534.98
2017-07-03T11:30:03.156Z,101525.41
2017-07-03T11:32:35.672Z,101529.89
2017-07-03T11:35:08.080Z,101522.61
2017-07-03T11:37:40.436Z,101512.77
2017-07-03T11:40:12.805Z,101508.78
2017-07-03T11:42:45.347Z,101519.21
2017-07-03T11:45:17.623Z,101528.87
2017-07-03T11:47:49.972Z,101531.52
2017-07-03T11:50:23.272Z,101523.45
2017-07-03T11:52:55.717Z,101515.15
2017-07-03T11:55:28.007Z,101506.01
2017-07-03T11:58:00.418Z,101511.20
2017-07-03T12:00:33.024Z,101497.52
2017-07-03T12:03:05.201Z,101497.73
2017-07-03T12:05:37.893Z,101489.95
2017-07-03T12:08:10.034Z,101488.83
2017-07-03T12:10:42.421Z,101491.23
2017-07-03T12:13:14.864Z,101482.08
2017-07-03T12:15:47.216Z,101473.86
2017-07-03T12:18:19.703Z,101476.71
2017-07-03T12:20:52.107Z,101460.86
2017-07-03T12:23:24.472Z,101469.11
2017-07-03T12:25:56.868Z,101465.75
2017-07-03T12:28:30.250Z,101464.25
2017-07-03T12:31:02.622Z,101459.02
2017-07-03T12:33:35.033Z,101443.79
2017-07-03T12:36:07.253Z,101441.97
2017-07-03T12:38:39.732Z,101446.96
2017-07-03T12:41:12.056Z,101456.38
2017-07-03T12:43:44.378Z,101451.89
2017-07-03T12:46:16.681Z,101445.80
2017-07-03T12:48:49.399Z,101452.31
2017-07-03T12:51:21.477Z,101435.34
2017-07-03T12:53:53.771Z,101440.45
2017-07-03T12:56:26.122Z,101443.41
2017-07-03T12:58:59.551Z,101438.87
2017-07-03T13:01:32.009Z,101433.22
2017-07-03T13:04:04.378Z,101434.94
2017-07-03T13:06:36.728Z,101434.21
2017-07-03T13:09:16.192Z,101433.42
2017-07-03T13:11:48.648Z,101427.73
2017-07-03T13:14:21.201Z,101428.03
2017-07-03T13:16:53.453Z,101423.91
2017-07-03T13:19:26.483Z,101422.88
2017-07-03T13:21:59.221Z,101413.63
2017-07-03T13:24:31.647Z,101413.80
2017-07-03T13:27:04.154Z,101412.55
2017-07-03T13:29:36.533Z,101421.76
2017-07-03T13:32:09.194Z,101427.47
2017-07-03T13:34:41.344Z,101422.77
2017-07-03T13:37:13.715Z,101418.80
2017-07-03T13:39:46.526Z,101416.09
2017-07-03T13:42:18.611Z,101416.30
2017-07-03T13:44:51.045Z,101412.13
2017-07-03T13:47:23.477Z,101419.55
2017-07-03T13:49:55.811Z,101407.61
2017-07-03T13:52:28.208Z,101405.66
2017-07-03T13:55:00.633Z,101408.80
2017-07-03T13:57:33.113Z,101402.63
2017-07-03T14:00:05.604Z,101405.58
2017-07-03T14:02:38.060Z,101402.31
2017-07-03T14:05:10.615Z,101405.77
2017-07-03T14:07:43.028Z,101398.64
2017-07-03T14:10:15.515Z,101398.67
2017-07-03T14:12:47.953Z,101389.39
2017-07-03T14:15:20.382Z,101391.89
2017-07-03T14:17:52.564Z,101391.79
2017-07-03T14:20:24.959Z,101388.63
2017-07-03T14:22:57.455Z,101383.70
2017-07-03T14:25:29.893Z,101385.38
2017-07-03T14:28:02.169Z,101379.82
2017-07-03T14:30:34.515Z,101375.77
2017-07-03T14:33:06.939Z,101375.22
2017-07-03T14:35:39.287Z,101372.52
2017-07-03T14:38:11.702Z,101387.92
2017-07-03T14:40:44.310Z,101378.81
2017-07-03T14:43:16.965Z,101372.94
2017-07-03T14:45:49.947Z,101370.42
2017-07-03T14:48:22.466Z,101376.06
2017-07-03T14:50:55.739Z,101376.09
2017-07-03T14:53:28.241Z,101366.00
2017-07-03T14:56:00.763Z,101369.16
2017-07-03T14:58:33.015Z,101358.50
2017-07-03T15:01:06.443Z,101362.86
2017-07-03T15:03:38.831Z,101350.52
2017-07-03T15:06:11.230Z,101340.84
2017-07-03T15:08:43.570Z,101345.95
2017-07-03T15:11:16.026Z,101344.98
2017-07-03T15:13:48.324Z,101341.28
2017-07-03T15:16:20.761Z,101333.02
2017-07-03T15:18:53.194Z,101340.30
2017-07-03T15:21:25.440Z,101342.69
2017-07-03T15:23:57.620Z,101334.22
2017-07-03T15:26:29.992Z,101334.21
2017-07-03T15:29:02.373Z,101333.11
2017-07-03T15:31:34.873Z,101334.37
2017-07-03T15:34:07.241Z,101336.26
2017-07-03T15:36:39.639Z,101331.41
2017-07-03T15:39:11.980Z,101327.80
2017-07-03T15:41:44.336Z,101324.17
2017-07-03T15:44:16.631Z,101317.42
2017-07-03T15:46:48.925Z,101319.07
2017-07-03T15:49:21.346Z,101313.69
2017-07-03T15:51:54.768Z,101309.83
2017-07-03T15:54:27.292Z,101296.34
2017-07-03T15:56:59.652Z,101296.27
2017-07-03T15:59:31.946Z,101302.29
2017-07-03T16:02:05.348Z,101305.26
2017-07-03T16:04:37.711Z,101296.00
2017-07-03T16:07:10.154Z,101302.66
2017-07-03T16:09:42.498Z,101294.36
2017-07-03T16:12:14.860Z,101300.56
2017-07-03T16:14:47.268Z,101311.97
2017-07-03T16:17:19.632Z,101309.66
2017-07-03T16:19:52.042Z,101305.88
2017-07-03T16:22:24.369Z,101315.37
2017-07-03T16:24:56.747Z,101297.76
2017-07-03T16:27:30.866Z,101315.86
2017-07-03T16:30:03.537Z,101316.89
2017-07-03T16:32:35.969Z,101314.14
2017-07-03T16:35:08.324Z,101313.46
2017-07-03T16:37:41.723Z,101320.03
2017-07-03T16:40:14.108Z,101317.84
2017-07-03T16:42:46.527Z,101310.58
2017-07-03T16:45:18.889Z,101315.63
2017-07-03T16:47:52.313Z,101305.23
2017-07-03T16:50:24.587Z,101319.39
2017-07-03T16:52:56.931Z,101317.97
2017-07-03T16:55:29.172Z,101311.14
2017-07-03T16:58:01.552Z,101320.77
2017-07-03T17:00:33.980Z,101322.25
2017-07-03T17:03:06.786Z,101317.60
2017-07-03T17:05:38.721Z,101312.73
2017-07-03T17:08:11.194Z,101318.28
2017-07-03T17:10:43.556Z,101315.20
2017-07-03T17:13:17.028Z,101311.52
2017-07-03T17:15:49.401Z,101317.78
2017-07-03T17:18:22.580Z,101313.83
2017-07-03T17:20:55.268Z,101315.50
2017-07-03T17:23:27.656Z,101310.43
2017-07-03T17:26:00.029Z,101314.27
2017-07-03T17:28:32.473Z,101310.45
2017-07-03T17:31:04.757Z,101312.60
2017-07-03T17:33:37.206Z,101313.66
2017-07-03T17:36:09.918Z,101320.37
2017-07-03T17:38:41.938Z,101318.42
2017-07-03T17:41:14.308Z,101314.91
2017-07-03T17:43:46.581Z,101314.25
2017-07-03T17:46:19.022Z,101308.98
2017-07-03T17:48:52.414Z,101310.51
2017-07-03T17:51:24.881Z,101309.73
2017-07-03T17:53:57.313Z,101309.31
2017-07-03T17:56:29.696Z,101306.36
2017-07-03T17:59:02.132Z,101309.45
2017-07-03T18:01:34.436Z,101299.03
2017-07-03T18:04:06.940Z,101299.56
2017-07-03T18:06:39.277Z,101289.48
2017-07-03T18:09:12.078Z,101301.44
2017-07-03T18:11:44.103Z,101300.95
2017-07-03T18:14:16.401Z,101303.45
2017-07-03T18:16:48.724Z,101298.09
2017-07-03T18:19:21.170Z,101297.83
2017-07-03T18:21:53.472Z,101297.41
2017-07-03T18:24:25.893Z,101301.77
2017-07-03T18:26:58.309Z,101308.27
2017-07-03T18:29:30.804Z,101307.42
2017-07-03T18:32:03.080Z,101302.12
2017-07-03T18:34:35.561Z,101307.92
2017-07-03T18:37:07.902Z,101303.89
2017-07-03T18:39:40.340Z,101299.81
2017-07-03T18:42:12.672Z,101298.09
2017-07-03T18:44:45.113Z,101297.31
2017-07-03T18:47:17.289Z,101308.19
2017-07-03T18:49:49.792Z,101318.95
2017-07-03T18:52:22.114Z,101321.00
2017-07-03T18:54:55.181Z,101340.66
2017-07-03T18:57:27.718Z,101341.22
2017-07-03T19:00:00.904Z,101351.57
2017-07-03T19:02:33.480Z,101370.49
2017-07-03T19:05:05.897Z,101376.70
2017-07-03T19:07:38.152Z,101381.42
2017-07-03T19:10:10.625Z,101381.14
2017-07-03T19:12:42.988Z,101369.72
2017-07-03T19:15:15.306Z,101371.25
2017-07-03T19:17:47.754Z,101361.73
2017-07-03T19:20:22.144Z,101362.63
2017-07-03T19:22:54.500Z,101371.33
2017-07-03T19:25:33.923Z,101376.00
2017-07-03T19:28:06.523Z,101373.39
2017-07-03T19:30:38.896Z,101385.16
2017-07-03T19:45:56.740Z,101368.09
2017-07-03T19:48:28.893Z,101371.99
2017-07-03T19:51:01.228Z,101367.42
2017-07-03T19:53:33.857Z,101372.47
2017-07-03T19:56:05.923Z,101379.59
2017-07-03T19:58:38.385Z,101381.02
2017-07-03T20:01:10.733Z,101381.84
2017-07-03T20:03:43.165Z,101383.48
2017-07-03T20:06:15.589Z,101389.08
2017-07-03T20:08:48.035Z,101386.56
2017-07-03T20:11:21.256Z,101387.91
2017-07-03T20:13:53.726Z,101384.14
2017-07-03T20:16:26.073Z,101388.78
2017-07-03T20:18:59.352Z,101391.64
2017-07-03T20:21:31.793Z,101388.37
2017-07-03T20:24:04.307Z,101396.25
2017-07-03T20:26:36.657Z,101393.71
2017-07-03T20:29:09.184Z,101405.04
2017-07-03T20:31:41.713Z,101398.53
2017-07-03T20:34:13.923Z,101406.75
2017-07-03T20:36:46.254Z,101409.99
2017-07-03T20:39:18.760Z,101415.70
2017-07-03T20:41:51.115Z,101415.94
2017-07-03T20:44:23.492Z,101420.28
2017-07-03T20:46:55.856Z,101428.98
2017-07-03T20:49:28.161Z,101429.63
2017-07-03T20:52:00.601Z,101428.44
2017-07-03T20:54:33.334Z,101428.88
2017-07-03T20:57:05.545Z,101424.95
2017-07-03T20:59:37.925Z,101425.34
2017-07-03T21:02:10.333Z,101426.90
2017-07-03T21:04:42.793Z,101417.03
2017-07-03T21:07:15.040Z,101413.89
2017-07-03T21:09:47.316Z,101417.81
2017-07-03T21:12:19.714Z,101413.83
2017-07-03T21:14:52.101Z,101418.91
2017-07-03T21:17:24.406Z,101411.74
2017-07-03T21:19:56.897Z,101412.47
2017-07-03T21:22:29.929Z,101409.59
2017-07-03T21:25:02.597Z,101420.37
2017-07-03T21:27:34.861Z,101426.59
2017-07-03T21:30:07.599Z,101428.77
2017-07-03T21:32:39.608Z,101439.06
2017-07-03T21:35:12.021Z,101431.56
2017-07-03T21:37:44.305Z,101431.25
2017-07-03T21:40:16.668Z,101425.98
2017-07-03T21:42:49.078Z,101429.47
2017-07-03T21:45:21.472Z,101426.34
2017-07-03T21:47:54.247Z,101431.90
2017-07-03T21:50:26.314Z,101431.83
2017-07-03T21:52:58.992Z,101436.28
2017-07-03T21:55:31.212Z,101439.59
2017-07-03T21:58:03.572Z,101439.20
2017-07-03T22:00:36.033Z,101441.27
2017-07-03T22:03:08.867Z,101441.23
2017-07-03T22:05:40.871Z,101439.99
2017-07-03T22:08:13.180Z,101438.23
2017-07-03T22:10:45.573Z,101442.48
2017-07-03T22:13:17.980Z,101437.50
2017-07-03T22:15:50.659Z,101436.87
2017-07-03T22:18:23.813Z,101433.86
2017-07-03T22:20:56.280Z,101433.42
2017-07-03T22:23:28.585Z,101434.52
2017-07-03T22:26:01.177Z,101432.34
2017-07-03T22:28:33.358Z,101438.84
2017-07-03T22:31:05.826Z,101441.25
2017-07-03T22:33:38.138Z,101442.02
2017-07-03T22:36:10.775Z,101444.84
2017-07-03T22:38:43.259Z,101445.44
2017-07-03T22:41:15.341Z,101442.23
2017-07-03T22:43:47.692Z,101442.09
2017-07-03T22:46:20.079Z,101435.44
2017-07-03T22:48:52.410Z,101438.79
2017-07-03T22:51:24.730Z,101432.99
2017-07-03T22:53:57.980Z,101444.14
2017-07-03T22:56:30.395Z,101436.58
2017-07-03T22:59:03.056Z,101434.05
2017-07-03T23:01:35.112Z,101437.98
2017-07-03T23:04:07.494Z,101433.90
2017-07-03T23:06:39.873Z,101432.92
2017-07-03T23:09:12.150Z,101440.85
2017-07-03T23:11:44.553Z,101436.89
2017-07-03T23:14:16.889Z,101441.95
2017-07-03T23:16:49.416Z,101442.63
2017-07-03T23:19:21.845Z,101448.50
2017-07-03T23:21:54.234Z,101445.20
2017-07-03T23:24:26.581Z,101454.77
2017-07-03T23:26:58.959Z,101453.63
2017-07-03T23:29:31.261Z,101455.31
2017-07-03T23:32:03.640Z,101456.98
2017-07-03T23:34:35.901Z,101451.80
2017-07-03T23:37:08.377Z,101454.95
2017-07-03T23:39:40.936Z,101445.75
2017-07-03T23:42:13.904Z,101459.72
2017-07-03T23:44:46.413Z,101450.91
2017-07-03T23:47:18.801Z,101447.07
2017-07-03T23:49:51.181Z,101441.77
2017-07-03T23:52:24.046Z,101432.15
2017-07-03T23:55:03.143Z,101431.55
2017-07-03T23:57:36.501Z,101437.19
